Dunchurch, United Kingdom
Current Conditions -  °F | °C
As of 4:20 PM on Saturday 20 Dec 2014 (Local Time) from EGBE Reporting Station
Scattered Clouds Scattered Clouds  
Wind Chill: 43°   Ceiling: Unl
Heat Index: 48°   Visibility: 6mi
Dew Point: 37°   Wind: 12mph
Humidity: 66%   Direction: 270°W
Pressure: 30.33"   Gusts: NA
Location:  52.34°N, 1.29°W
Report Text: EGBE 201620Z 27010KT 9999 SCT038 09/03 Q1027
Loading
Personal Weather Stations






























Interactive Weather Map New forecast layout! Learn more

10-Day Weather Forecast

Advertisements
Track Severe Weather on mobile